Coles Point, Australia
Current Conditions -  °F | °C
As of 2:00 AM on Friday 31 Oct 2014 (Local Time) from YWHA Reporting Station
Clear Clear  
Wind Chill: 57°   Ceiling: Unl
Heat Index: 57°   Visibility: 6mi
Dew Point: 45°   Wind: 5mph
Humidity: 63%   Direction: 310°NW
Pressure: 29.74"   Gusts: NA
Location:  34.38°S, 135.37°E
Report Text: YWHA 301600Z AUTO 31004KT 9999 // NCD 14/07 Q1007
Loading
Personal Weather Stations






























Interactive Weather Map
Tropical Storm Tracking
New forecast layout! Learn more

10-Day Weather Forecast

Advertisements
Track Severe Weather on mobile